Time;durP1;ratioP1;P1;durP2;ratioP2;P2;SDS_P1;SDS_P2;PMS_P1;PMS_P2;Temp;Humidity;BMP_temperature;BMP_pressure;BME280_temperature;BME280_humidity;BME280_pressure;Samples;Min_cycle;Max_cycle;Signal;HPM_P1;HPM_P2
2022/06/02 00:00:10;;;;;;;8.27;7.45;;;11.70;99.90;;;;;;4925186;29;20395;-33
2022/06/02 00:02:57;;;;;;;9.30;7.60;;;11.70;99.90;;;;;;4949415;29;20350;-34
2022/06/02 00:05:50;;;;;;;8.38;7.45;;;11.60;99.90;;;;;;4942060;29;20062;-33
2022/06/02 00:08:15;;;;;;;;;;;11.60;99.90;;;;;;4950676;28;20088;-34
2022/06/02 00:11:04;;;;;;;9.63;8.63;;;11.60;99.90;;;;;;4949865;29;20838;-34
2022/06/02 00:13:42;;;;;;;9.98;8.20;;;11.60;99.90;;;;;;4950049;28;20030;-35
2022/06/02 00:16:25;;;;;;;9.98;8.98;;;11.60;99.90;;;;;;4950548;28;20039;-34
2022/06/02 00:18:56;;;;;;;9.52;8.63;;;11.50;99.90;;;;;;4950450;28;20034;-34
2022/06/02 00:21:44;;;;;;;9.30;7.70;;;11.50;99.90;;;;;;4950251;29;20306;-34
2022/06/02 00:24:27;;;;;;;9.63;8.82;;;11.50;99.90;;;;;;4949571;28;20283;-35
2022/06/02 00:27:01;;;;;;;9.73;8.70;;;11.50;99.90;;;;;;4950506;28;20034;-35
2022/06/02 00:29:42;;;;;;;9.88;8.73;;;11.40;99.90;;;;;;4950118;28;20028;-35
2022/06/02 00:32:17;;;;;;;8.82;7.97;;;11.40;99.90;;;;;;4950528;29;20027;-34
2022/06/02 00:35:06;;;;;;;8.32;7.53;;;11.40;99.90;;;;;;4950029;28;20360;-35
2022/06/02 00:37:40;;;;;;;8.38;7.57;;;11.50;99.90;;;;;;4930392;29;20036;-34
2022/06/02 00:40:07;;;;;;;8.65;7.75;;;11.40;99.90;;;;;;4945888;29;20054;-34
2022/06/02 00:42:40;;;;;;;9.52;8.52;;;11.40;99.90;;;;;;4949550;28;20035;-34
2022/06/02 00:45:15;;;;;;;9.20;8.10;;;11.40;99.90;;;;;;4950069;29;20027;-34
2022/06/02 00:48:02;;;;;;;9.88;8.88;;;11.40;99.90;;;;;;4949663;28;20058;-34
2022/06/02 00:51:00;;;;;;;8.88;8.05;;;11.30;99.90;;;;;;4949409;28;20038;-36
2022/06/02 01:00:18;;;;;;;8.30;7.50;;;11.20;99.90;;;;;;4949756;28;20105;-34
2022/06/02 01:02:56;;;;;;;10.73;9.63;;;11.10;99.90;;;;;;4950269;29;20618;-35
2022/06/02 01:05:49;;;;;;;10.70;9.68;;;11.20;99.90;;;;;;4949165;28;20727;-34
2022/06/02 01:08:35;;;;;;;10.65;9.55;;;11.10;99.90;;;;;;4949908;29;20030;-35
2022/06/02 01:11:33;;;;;;;9.63;8.63;;;11.10;99.90;;;;;;4938615;28;20035;-36
2022/06/02 01:14:14;;;;;;;9.93;8.93;;;11.10;99.90;;;;;;4930381;29;20028;-36
2022/06/02 01:16:54;;;;;;;8.48;7.68;;;11.00;99.90;;;;;;4947762;28;20045;-35
2022/06/02 01:19:23;;;;;;;10.05;9.05;;;11.10;99.90;;;;;;4949336;28;20035;-34
2022/06/02 01:22:27;;;;;;;10.02;9.02;;;11.00;99.90;;;;;;4949405;29;20378;-34
2022/06/02 01:24:55;;;;;;;11.48;10.43;;;11.00;99.90;;;;;;4949791;28;20031;-35
2022/06/02 01:27:36;;;;;;;10.80;9.65;;;11.00;99.90;;;;;;4948092;29;20041;-34
2022/06/02 01:30:10;;;;;;;10.75;9.18;;;10.90;99.90;;;;;;4948743;29;20033;-36
2022/06/02 01:32:51;;;;;;;11.30;10.20;;;11.00;99.90;;;;;;4945707;29;20058;-33
2022/06/02 01:35:28;;;;;;;13.75;11.00;;;10.90;99.90;;;;;;4948136;28;20431;-34
2022/06/02 01:38:15;;;;;;;10.93;9.82;;;10.90;99.90;;;;;;4946772;29;20034;-34
2022/06/02 01:41:02;;;;;;;13.68;11.73;;;10.90;99.90;;;;;;4949056;28;20031;-33
2022/06/02 01:44:06;;;;;;;11.90;10.75;;;10.80;99.90;;;;;;4938759;29;20431;-36
2022/06/02 01:46:46;;;;;;;10.68;9.55;;;10.80;99.90;;;;;;4940220;29;20416;-35
2022/06/02 01:49:23;;;;;;;13.13;11.50;;;10.80;99.90;;;;;;4948464;29;20374;-35
2022/06/02 01:52:04;;;;;;;11.77;10.57;;;10.80;99.90;;;;;;4948504;29;20046;-35
2022/06/02 01:54:32;;;;;;;9.70;8.75;;;10.80;99.90;;;;;;4947825;28;20062;-34
2022/06/02 01:57:20;;;;;;;9.85;8.75;;;10.80;99.90;;;;;;4948029;29;20031;-34
2022/06/02 02:00:04;;;;;;;9.57;8.65;;;10.80;99.90;;;;;;4948309;29;20038;-40
2022/06/02 02:02:59;;;;;;;10.48;9.20;;;10.80;99.90;;;;;;4947065;28;20479;-35
2022/06/02 02:05:30;;;;;;;9.45;8.45;;;10.80;99.90;;;;;;4927969;29;20534;-34
2022/06/02 02:08:37;;;;;;;12.52;11.32;;;10.80;99.90;;;;;;4943653;28;20110;-34
2022/06/02 02:11:40;;;;;;;14.70;13.15;;;10.80;99.90;;;;;;4918261;29;20036;-33
2022/06/02 02:14:31;;;;;;;14.82;13.27;;;10.70;99.90;;;;;;4946370;29;20027;-34
2022/06/02 02:17:31;;;;;;;12.77;11.57;;;10.60;99.90;;;;;;4947683;28;20118;-34
2022/06/02 02:20:14;;;;;;;11.48;10.27;;;10.50;99.90;;;;;;4940817;29;20058;-34
2022/06/02 02:23:03;;;;;;;12.45;11.25;;;10.50;99.90;;;;;;4947400;28;20034;-34
2022/06/02 02:25:57;;;;;;;13.15;11.80;;;10.50;99.90;;;;;;4947570;28;20423;-34
2022/06/02 02:28:37;;;;;;;10.77;9.73;;;10.50;99.90;;;;;;4948032;28;20477;-35
2022/06/02 02:31:25;;;;;;;12.25;10.90;;;10.50;99.90;;;;;;4947698;29;20202;-35
2022/06/02 02:34:24;;;;;;;11.32;10.23;;;10.50;99.90;;;;;;4948326;28;20371;-34
2022/06/02 02:37:14;;;;;;;12.40;10.48;;;10.50;99.90;;;;;;4912844;29;20135;-36
2022/06/02 02:39:45;;;;;;;11.15;9.98;;;10.50;99.90;;;;;;4947316;28;20519;-34
2022/06/02 02:42:40;;;;;;;11.35;10.23;;;10.60;99.90;;;;;;4947809;29;20039;-34
2022/06/02 02:45:32;;;;;;;11.68;10.52;;;10.60;99.90;;;;;;4944372;29;20553;-36
2022/06/02 02:48:19;;;;;;;10.85;9.70;;;10.60;99.90;;;;;;4947000;28;20078;-34
2022/06/02 02:50:53;;;;;;;10.98;9.88;;;10.60;99.90;;;;;;4938335;28;20035;-35
2022/06/02 02:53:33;;;;;;;12.25;10.95;;;10.50;99.90;;;;;;4946763;28;20397;-35
2022/06/02 02:56:16;;;;;;;11.68;9.82;;;10.50;99.90;;;;;;4938843;29;20039;-35
2022/06/02 02:58:50;;;;;;;11.80;10.60;;;10.50;99.90;;;;;;4946711;28;20062;-35
2022/06/02 03:01:42;;;;;;;11.85;10.60;;;10.50;99.90;;;;;;4948019;28;20027;-34
2022/06/02 03:04:10;;;;;;;11.05;9.95;;;10.40;99.90;;;;;;4921142;28;20027;-34
2022/06/02 03:06:39;;;;;;;11.75;10.55;;;10.40;99.90;;;;;;4946615;29;20345;-34
2022/06/02 03:09:52;;;;;;;10.45;9.38;;;10.40;99.90;;;;;;4948340;28;20098;-34
2022/06/02 03:12:41;;;;;;;12.02;10.82;;;10.30;99.90;;;;;;4944643;29;20043;-34
2022/06/02 03:15:44;;;;;;;11.85;10.55;;;10.30;99.90;;;;;;4947580;28;20039;-33
2022/06/02 03:18:38;;;;;;;12.77;11.32;;;10.30;99.90;;;;;;4928692;29;20036;-34
2022/06/02 03:21:13;;;;;;;13.40;11.48;;;10.30;99.90;;;;;;4945540;29;20046;-35
2022/06/02 03:24:15;;;;;;;12.80;11.52;;;10.40;99.90;;;;;;4948003;28;20503;-34
2022/06/02 03:27:02;;;;;;;12.00;10.70;;;10.40;99.90;;;;;;4945484;29;20031;-35
2022/06/02 03:29:37;;;;;;;11.93;10.75;;;10.40;99.90;;;;;;4947077;29;20031;-34
2022/06/02 03:32:43;;;;;;;12.82;11.52;;;10.40;99.90;;;;;;4937016;29;20031;-34
2022/06/02 03:35:31;;;;;;;12.30;11.10;;;10.40;99.90;;;;;;4950019;28;20471;-35
2022/06/02 03:38:27;;;;;;;12.27;10.98;;;10.40;99.90;;;;;;4951279;28;20463;-35
2022/06/02 03:41:15;;;;;;;11.65;10.52;;;10.40;99.90;;;;;;4929967;28;20085;-34
2022/06/02 03:44:02;;;;;;;13.55;10.77;;;10.40;99.90;;;;;;4951249;29;20031;-34
2022/06/02 03:46:30;;;;;;;12.98;11.10;;;10.40;99.90;;;;;;4950631;28;20517;-35
2022/06/02 03:49:23;;;;;;;12.93;11.18;;;10.40;99.90;;;;;;4950770;29;20141;-35
2022/06/02 03:52:00;;;;;;;13.23;11.82;;;10.40;99.90;;;;;;4951204;28;20502;-35
2022/06/02 03:54:44;;;;;;;13.13;11.82;;;10.40;99.90;;;;;;4950452;29;20037;-35
2022/06/02 03:57:22;;;;;;;13.23;11.85;;;10.40;99.90;;;;;;4950252;29;20039;-34
2022/06/02 03:59:57;;;;;;;11.38;10.27;;;10.30;99.90;;;;;;4950695;28;20391;-34
2022/06/02 04:02:34;;;;;;;12.65;10.88;;;10.30;99.90;;;;;;4949843;29;20031;-34
2022/06/02 04:05:17;;;;;;;10.63;9.63;;;10.30;99.90;;;;;;4951030;28;20464;-34
2022/06/02 04:07:51;;;;;;;;;;;10.20;99.90;;;;;;4950449;29;20070;-35
2022/06/02 04:10:24;;;;;;;12.60;9.93;;;10.20;99.90;;;;;;4950070;28;19918;-35
2022/06/02 04:13:37;;;;;;;9.60;8.68;;;10.20;99.90;;;;;;4951063;28;20103;-35
2022/06/02 04:16:19;;;;;;;13.20;11.35;;;10.20;99.90;;;;;;4949860;28;20035;-35
2022/06/02 04:20:34;;;;;;;9.20;8.30;;;10.20;99.90;;;;;;4941135;29;20552;-35
2022/06/02 04:22:22;;;;;;;12.00;10.73;;;10.20;99.90;;;;;;4949885;29;20395;-35
2022/06/02 04:25:07;;;;;;;11.45;10.32;;;10.30;99.90;;;;;;4949597;29;20070;-36
2022/06/02 04:27:44;;;;;;;14.82;11.55;;;10.30;99.90;;;;;;4950353;28;20842;-35
2022/06/02 04:30:17;;;;;;;13.10;11.80;;;10.40;99.90;;;;;;4950008;28;20068;-35
2022/06/02 04:32:57;;;;;;;13.10;11.80;;;10.40;99.90;;;;;;4950434;29;20135;-35
2022/06/02 04:35:57;;;;;;;13.45;12.15;;;10.40;99.90;;;;;;4950729;28;20180;-35
2022/06/02 04:38:32;;;;;;;12.55;11.30;;;10.50;99.90;;;;;;4949667;29;20043;-35
2022/06/02 04:41:16;;;;;;;13.45;12.05;;;10.50;99.90;;;;;;4950956;29;20072;-36
2022/06/02 04:43:53;;;;;;;13.05;11.75;;;10.50;99.90;;;;;;4948827;29;20031;-35
2022/06/02 04:46:42;;;;;;;13.07;11.70;;;10.50;99.90;;;;;;4948860;28;20030;-34
2022/06/02 04:49:42;;;;;;;13.55;11.68;;;10.50;99.90;;;;;;4950582;28;20471;-35
2022/06/02 04:52:27;;;;;;;13.27;11.35;;;10.50;99.90;;;;;;4926597;28;20065;-35
2022/06/02 04:55:14;;;;;;;13.35;11.95;;;10.50;99.90;;;;;;4940112;29;20031;-35
2022/06/02 04:57:58;;;;;;;13.15;11.82;;;10.50;99.90;;;;;;4949059;29;20031;-35
2022/06/02 05:00:55;;;;;;;13.15;11.77;;;10.50;99.90;;;;;;4949608;29;20063;-35
2022/06/02 05:03:46;;;;;;;13.05;11.75;;;10.50;99.90;;;;;;4949297;28;20395;-35
2022/06/02 05:06:27;;;;;;;12.82;11.55;;;10.50;99.90;;;;;;4949391;28;20118;-35
2022/06/02 05:09:26;;;;;;;12.43;11.13;;;10.50;99.90;;;;;;4949920;28;20378;-34
2022/06/02 05:12:13;;;;;;;12.70;11.35;;;10.60;99.90;;;;;;4929829;29;20039;-34
2022/06/02 05:15:01;;;;;;;13.35;11.65;;;10.60;99.90;;;;;;4948183;29;20118;-35
2022/06/02 05:17:39;;;;;;;11.77;10.57;;;10.60;99.90;;;;;;4949710;28;20077;-34
2022/06/02 05:20:20;;;;;;;13.23;11.82;;;10.70;99.90;;;;;;4948034;29;20098;-34
2022/06/02 05:22:51;;;;;;;12.52;11.23;;;10.70;99.90;;;;;;4949217;28;20031;-34
2022/06/02 05:25:58;;;;;;;13.88;12.25;;;10.70;99.90;;;;;;4948792;29;20031;-35
2022/06/02 05:28:58;;;;;;;14.68;12.68;;;10.80;99.90;;;;;;4948376;29;20050;-34
2022/06/02 05:31:36;;;;;;;13.50;12.15;;;10.80;99.90;;;;;;4941376;28;20817;-34
2022/06/02 05:34:16;;;;;;;13.68;12.27;;;10.90;99.90;;;;;;4948665;29;20038;-35
2022/06/02 05:37:09;;;;;;;13.77;12.27;;;11.00;99.90;;;;;;4949052;28;20050;-35
2022/06/02 05:39:46;;;;;;;12.80;11.45;;;11.00;99.90;;;;;;4948186;28;20032;-34
2022/06/02 05:42:18;;;;;;;11.07;9.98;;;11.00;99.90;;;;;;4948586;28;20435;-34
2022/06/02 05:45:11;;;;;;;11.43;10.30;;;11.10;99.90;;;;;;4948204;28;20387;-33
2022/06/02 05:47:57;;;;;;;11.70;10.50;;;11.10;99.90;;;;;;4947031;28;20074;-33
2022/06/02 05:50:50;;;;;;;13.27;11.88;;;11.20;99.90;;;;;;4919247;28;20585;-35
2022/06/02 05:53:39;;;;;;;11.77;10.57;;;11.20;99.90;;;;;;4910776;29;20052;-34
2022/06/02 05:56:20;;;;;;;11.90;10.13;;;11.30;99.90;;;;;;4925039;29;20036;-35
2022/06/02 05:59:23;;;;;;;11.52;10.32;;;11.30;99.90;;;;;;4927594;29;20028;-35
2022/06/02 06:02:07;;;;;;;;;;;11.30;99.90;;;;;;4927062;29;20105;-35
2022/06/02 06:04:59;;;;;;;10.38;9.35;;;11.40;99.90;;;;;;4927953;29;19915;-35
2022/06/02 06:07:39;;;;;;;11.38;10.18;;;11.40;99.90;;;;;;4919750;29;20123;-35
2022/06/02 06:10:30;;;;;;;14.43;12.82;;;11.50;99.90;;;;;;4927583;29;20543;-35
2022/06/02 06:13:14;;;;;;;12.70;11.40;;;11.60;99.90;;;;;;4928650;29;20083;-35
2022/06/02 06:15:56;;;;;;;8.65;7.85;;;11.70;99.90;;;;;;4927086;29;20043;-34
2022/06/02 06:18:53;;;;;;;9.07;8.07;;;11.80;99.90;;;;;;4929011;29;20372;-35
2022/06/02 06:21:50;;;;;;;7.20;6.60;;;11.90;99.90;;;;;;4928520;29;20432;-35
2022/06/02 06:24:36;;;;;;;7.55;6.15;;;12.00;99.90;;;;;;4908537;29;20107;-35
2022/06/02 06:27:29;;;;;;;7.15;5.75;;;12.10;99.90;;;;;;4927141;29;20538;-34
2022/06/02 06:30:13;;;;;;;5.05;4.55;;;12.20;99.90;;;;;;4927519;29;20031;-33
2022/06/02 06:32:57;;;;;;;5.43;4.93;;;12.30;99.90;;;;;;4925395;29;20500;-34
2022/06/02 06:35:56;;;;;;;5.68;3.92;;;12.40;99.90;;;;;;4928055;29;20069;-34
2022/06/02 06:38:25;;;;;;;5.22;3.83;;;12.50;99.90;;;;;;4918733;29;20043;-34
2022/06/02 06:41:32;;;;;;;5.10;4.10;;;12.60;99.90;;;;;;4929117;29;20258;-33
2022/06/02 06:44:16;;;;;;;5.78;3.88;;;12.60;99.90;;;;;;4922619;29;20480;-35
2022/06/02 06:47:16;;;;;;;3.88;3.58;;;12.70;99.90;;;;;;4928483;29;20102;-36
2022/06/02 06:50:10;;;;;;;4.18;3.78;;;12.80;99.90;;;;;;4927282;29;20212;-34
2022/06/02 06:52:50;;;;;;;4.45;4.05;;;12.80;99.90;;;;;;4939912;28;20517;-34
2022/06/02 06:55:54;;;;;;;4.30;3.90;;;12.90;99.90;;;;;;4941831;28;20371;-36
2022/06/02 06:58:31;;;;;;;4.13;3.72;;;12.90;99.90;;;;;;4946046;29;20115;-34
2022/06/02 07:01:03;;;;;;;6.40;4.32;;;12.90;99.90;;;;;;4948124;28;20034;-35
2022/06/02 07:04:06;;;;;;;5.83;4.10;;;13.00;99.90;;;;;;4947187;28;20031;-36
2022/06/02 07:06:44;;;;;;;3.93;3.53;;;13.00;99.90;;;;;;4946839;28;20754;-36
2022/06/02 07:09:29;;;;;;;3.85;3.45;;;13.00;99.90;;;;;;4947205;28;20079;-36
2022/06/02 07:15:34;;;;;;;3.85;2.95;;;13.30;99.90;;;;;;4942116;29;20133;-34
2022/06/02 07:18:03;;;;;;;5.70;3.13;;;13.50;99.90;;;;;;4947574;28;20019;-34
2022/06/02 07:20:49;;;;;;;4.05;3.20;;;13.60;99.90;;;;;;4945848;28;20335;-35
2022/06/02 07:23:36;;;;;;;2.92;2.65;;;13.70;99.90;;;;;;4946606;28;20391;-35
2022/06/02 07:26:36;;;;;;;5.05;3.20;;;13.90;99.90;;;;;;4947055;29;20042;-34
2022/06/02 07:29:20;;;;;;;3.35;3.05;;;14.00;99.90;;;;;;4947228;29;20398;-35
2022/06/02 07:32:24;;;;;;;2.97;2.42;;;14.10;99.90;;;;;;4947342;28;20035;-36
2022/06/02 07:35:13;;;;;;;3.03;2.65;;;14.20;99.90;;;;;;4945354;29;20023;-35
2022/06/02 07:37:52;;;;;;;3.20;2.80;;;14.30;99.90;;;;;;4946718;28;20019;-36
2022/06/02 07:40:17;;;;;;;2.30;2.10;;;14.30;99.90;;;;;;4936026;29;20606;-34
2022/06/02 07:42:49;;;;;;;2.38;2.17;;;14.30;99.90;;;;;;4946058;29;20035;-34
2022/06/02 07:45:35;;;;;;;2.88;2.60;;;14.30;99.90;;;;;;4947112;29;20023;-34
2022/06/02 07:48:22;;;;;;;2.78;2.58;;;14.40;99.90;;;;;;4946943;29;20118;-34
2022/06/02 07:51:17;;;;;;;3.55;3.10;;;14.40;99.90;;;;;;4943029;29;20167;-36
2022/06/02 07:53:55;;;;;;;3.35;2.50;;;14.50;99.90;;;;;;4946303;28;20031;-34
2022/06/02 07:56:33;;;;;;;3.08;2.83;;;14.50;99.90;;;;;;4947014;29;20135;-35
2022/06/02 07:59:24;;;;;;;2.45;2.25;;;14.50;99.90;;;;;;4947306;29;20078;-34
2022/06/02 08:02:11;;;;;;;2.20;2.00;;;14.60;99.90;;;;;;4946681;28;20046;-34
2022/06/02 08:04:55;;;;;;;2.60;2.00;;;14.60;99.90;;;;;;4946653;29;20031;-34
2022/06/02 08:07:40;;;;;;;1.67;1.58;;;14.60;99.90;;;;;;4946829;29;20039;-35
2022/06/02 08:10:33;;;;;;;1.98;1.88;;;14.60;99.90;;;;;;4947579;28;20174;-34
2022/06/02 08:13:23;;;;;;;1.90;1.80;;;14.70;99.90;;;;;;4927720;29;20094;-34
2022/06/02 08:16:15;;;;;;;2.60;2.00;;;14.80;99.90;;;;;;4945904;29;20542;-35
2022/06/02 08:18:59;;;;;;;1.57;1.47;;;14.90;99.90;;;;;;4946712;29;20027;-35
2022/06/02 08:21:48;;;;;;;2.45;2.13;;;15.10;99.90;;;;;;4946963;29;20357;-34
2022/06/02 08:24:38;;;;;;;3.47;2.38;;;15.10;99.90;;;;;;4950173;29;20027;-35
2022/06/02 08:27:21;;;;;;;3.72;2.55;;;15.30;99.90;;;;;;4941688;29;20416;-35
2022/06/02 08:30:05;;;;;;;3.90;2.47;;;15.40;99.90;;;;;;4949228;28;20727;-35
2022/06/02 08:32:56;;;;;;;3.58;2.55;;;15.50;99.90;;;;;;4948594;29;20407;-35
2022/06/02 08:35:26;;;;;;;2.15;2.00;;;15.60;99.90;;;;;;4949858;29;20043;-34
2022/06/02 08:38:15;;;;;;;3.10;2.40;;;15.70;99.90;;;;;;4949649;28;20427;-34
2022/06/02 08:41:31;;;;;;;2.15;1.80;;;15.70;99.90;;;;;;4949690;28;20046;-32
2022/06/02 08:44:02;;;;;;;2.33;2.13;;;15.80;99.90;;;;;;4930768;29;20130;-36
2022/06/02 08:46:55;;;;;;;2.03;1.67;;;15.80;99.90;;;;;;4946321;28;20395;-35
2022/06/02 08:49:32;;;;;;;1.60;1.50;;;15.80;99.90;;;;;;4949689;29;20039;-35
2022/06/02 08:52:23;;;;;;;2.10;1.80;;;15.80;99.90;;;;;;4948916;29;20047;-35
2022/06/02 08:55:32;;;;;;;2.17;1.90;;;15.80;99.90;;;;;;4949913;29;20031;-34
2022/06/02 08:58:33;;;;;;;1.42;1.33;;;15.90;99.90;;;;;;4949540;28;20067;-34
2022/06/02 09:01:27;;;;;;;2.38;1.60;;;16.00;99.90;;;;;;4950103;29;20060;-40
2022/06/02 09:04:30;;;;;;;1.88;1.27;;;16.10;99.90;;;;;;4948914;29;20039;-34
2022/06/02 09:07:05;;;;;;;;;;;16.20;99.90;;;;;;4950618;29;20031;-35
2022/06/02 09:10:02;;;;;;;2.15;1.92;;;16.30;99.90;;;;;;4949508;28;19953;-35
2022/06/02 09:12:52;;;;;;;3.35;3.03;;;16.30;99.90;;;;;;4948134;29;20027;-35
2022/06/02 09:15:27;;;;;;;2.88;2.50;;;16.20;99.10;;;;;;4948908;28;20035;-34
2022/06/02 09:17:58;;;;;;;2.40;2.20;;;16.20;99.40;;;;;;4949137;29;20031;-35
2022/06/02 09:20:33;;;;;;;3.50;2.50;;;16.10;99.70;;;;;;4949236;29;20028;-35
2022/06/02 09:23:16;;;;;;;2.80;2.05;;;16.10;99.80;;;;;;4948929;29;20475;-36
2022/06/02 09:26:13;;;;;;;3.60;2.55;;;16.10;99.90;;;;;;4948675;29;20035;-41
2022/06/02 09:28:49;;;;;;;2.75;2.22;;;16.10;99.90;;;;;;4949391;28;20053;-35
2022/06/02 09:31:56;;;;;;;2.78;1.83;;;16.00;99.90;;;;;;4949220;28;20027;-34
2022/06/02 09:34:36;;;;;;;2.28;1.65;;;16.00;99.90;;;;;;4907758;29;20095;-34
2022/06/02 09:37:32;;;;;;;2.45;2.00;;;16.00;99.90;;;;;;4908529;29;20071;-35
2022/06/02 09:40:34;;;;;;;2.75;2.08;;;16.00;99.90;;;;;;4938366;29;20038;-37
2022/06/02 09:43:34;;;;;;;2.07;1.87;;;16.00;99.80;;;;;;4949246;28;20379;-35
2022/06/02 09:46:08;;;;;;;1.85;1.50;;;16.00;99.40;;;;;;4930672;29;20311;-36
2022/06/02 09:48:52;;;;;;;1.13;1.02;;;16.20;99.40;;;;;;4946879;28;20035;-35
2022/06/02 09:51:39;;;;;;;1.80;1.70;;;16.30;99.30;;;;;;4948733;29;20055;-34
2022/06/02 09:54:44;;;;;;;1.08;1.08;;;16.50;99.10;;;;;;4948179;29;20031;-35
2022/06/02 10:00:36;;;;;;;1.35;1.20;;;16.80;98.90;;;;;;4939481;29;20039;-34
2022/06/02 10:03:35;;;;;;;1.95;1.20;;;17.00;98.60;;;;;;4948266;29;20156;-35
2022/06/02 10:06:31;;;;;;;1.70;1.52;;;17.20;98.20;;;;;;4948952;28;20031;-35
2022/06/02 10:09:11;;;;;;;2.83;1.20;;;17.30;97.90;;;;;;4948302;28;20395;-34
2022/06/02 10:15:16;;;;;;;2.85;2.33;;;17.30;96.90;;;;;;4946355;29;20583;-34
2022/06/02 10:18:23;;;;;;;2.08;1.95;;;17.30;97.00;;;;;;4948096;29;20039;-33
2022/06/02 10:20:56;;;;;;;3.95;2.90;;;17.20;96.80;;;;;;4948685;28;20534;-36
2022/06/02 10:23:34;;;;;;;2.42;2.10;;;17.20;95.80;;;;;;4947512;28;20043;-35
2022/06/02 10:26:05;;;;;;;2.10;1.90;;;17.20;96.30;;;;;;4939608;29;20038;-36
2022/06/02 10:28:51;;;;;;;2.95;2.10;;;17.20;96.50;;;;;;4946707;29;20995;-35
2022/06/02 10:31:55;;;;;;;1.80;1.52;;;17.10;96.40;;;;;;4926984;29;20365;-34
2022/06/02 10:35:07;;;;;;;2.45;1.60;;;17.20;96.50;;;;;;4947570;29;20043;-35
2022/06/02 10:37:58;;;;;;;2.15;1.73;;;17.30;96.40;;;;;;4906453;29;20036;-35
2022/06/02 10:40:54;;;;;;;2.13;1.33;;;17.20;95.50;;;;;;4906267;29;20099;-35
2022/06/02 10:43:42;;;;;;;1.92;1.42;;;17.20;95.90;;;;;;4923913;29;20058;-35
2022/06/02 10:46:45;;;;;;;1.67;1.58;;;17.30;95.80;;;;;;4945454;28;20023;-35
2022/06/02 10:49:35;;;;;;;1.40;1.30;;;17.50;95.80;;;;;;4933463;29;20030;-35
2022/06/02 10:52:42;;;;;;;1.83;1.30;;;17.60;95.50;;;;;;4939635;29;20047;-36
2022/06/02 10:55:24;;;;;;;2.45;1.35;;;17.80;95.30;;;;;;4947638;28;20039;-36
2022/06/02 10:58:08;;;;;;;1.33;1.23;;;17.90;95.30;;;;;;4947383;28;20046;-36
2022/06/02 11:00:54;;;;;;;0.85;0.85;;;18.00;95.30;;;;;;4947881;29;20038;-36
2022/06/02 11:03:41;;;;;;;1.75;1.10;;;18.10;95.30;;;;;;4948134;29;20434;-33
2022/06/02 11:06:57;;;;;;;0.98;0.88;;;18.20;95.10;;;;;;4948032;29;20031;-34
2022/06/02 11:09:47;;;;;;;1.33;1.02;;;18.30;94.90;;;;;;4947640;29;20083;-35
2022/06/02 11:12:22;;;;;;;1.25;1.15;;;18.50;94.80;;;;;;4945762;29;20494;-34
2022/06/02 11:15:25;;;;;;;1.60;1.00;;;18.60;94.60;;;;;;4947541;28;20073;-35
2022/06/02 11:18:28;;;;;;;1.65;1.40;;;18.60;94.50;;;;;;4938904;29;20570;-34
2022/06/02 11:21:03;;;;;;;1.27;0.98;;;18.60;94.10;;;;;;4947620;28;20075;-34
2022/06/02 11:23:47;;;;;;;1.70;1.30;;;18.60;94.20;;;;;;4947123;29;20035;-34
2022/06/02 11:26:33;;;;;;;1.58;1.20;;;18.40;94.00;;;;;;4946376;29;20035;-35
2022/06/02 11:29:04;;;;;;;1.80;1.45;;;18.40;94.00;;;;;;4947069;29;20050;-34
2022/06/02 11:31:36;;;;;;;1.40;1.30;;;18.30;93.80;;;;;;4946382;29;20566;-35
2022/06/02 11:34:17;;;;;;;1.60;1.20;;;18.20;93.80;;;;;;4947396;29;20064;-34
2022/06/02 11:36:51;;;;;;;1.60;1.20;;;18.20;93.80;;;;;;4947012;29;20078;-34
2022/06/02 11:39:19;;;;;;;2.38;1.17;;;18.20;93.70;;;;;;4946401;29;20035;-34
2022/06/02 11:41:50;;;;;;;1.48;1.33;;;18.20;93.60;;;;;;4946626;29;20493;-34
2022/06/02 11:44:43;;;;;;;1.48;1.10;;;18.20;93.30;;;;;;4947194;29;20444;-35
2022/06/02 11:47:18;;;;;;;3.78;1.40;;;18.20;93.20;;;;;;4946641;29;20063;-35
2022/06/02 11:50:03;;;;;;;1.33;0.80;;;18.10;92.90;;;;;;4947757;29;20466;-40
2022/06/02 11:52:56;;;;;;;0.98;0.98;;;18.10;93.00;;;;;;4946374;29;20480;-35
2022/06/02 11:55:38;;;;;;;0.90;0.90;;;18.10;93.10;;;;;;4930204;29;20039;-36
2022/06/02 11:58:34;;;;;;;1.33;0.95;;;18.30;93.20;;;;;;4950647;28;20035;-34
2022/06/02 12:01:40;;;;;;;0.70;0.70;;;18.60;92.90;;;;;;4951172;29;20019;-36
2022/06/02 12:04:31;;;;;;;0.85;0.73;;;18.80;92.80;;;;;;4951814;28;20027;-34
2022/06/02 12:07:21;;;;;;;1.98;0.80;;;19.00;92.70;;;;;;4950582;28;20050;-35
2022/06/02 12:10:08;;;;;;;1.25;0.70;;;19.10;92.50;;;;;;4950897;29;20037;-35
2022/06/02 12:13:06;;;;;;;1.52;0.80;;;19.20;92.40;;;;;;4950549;28;20039;-34
2022/06/02 12:15:51;;;;;;;1.48;0.90;;;19.30;92.30;;;;;;4949386;29;20059;-34
2022/06/02 12:18:57;;;;;;;0.75;0.70;;;19.30;92.20;;;;;;4950424;28;20020;-36
2022/06/02 12:21:51;;;;;;;1.25;0.60;;;19.40;92.30;;;;;;4949753;28;20039;-36
2022/06/02 12:24:29;;;;;;;1.05;0.70;;;19.50;92.20;;;;;;4949923;28;20020;-37
2022/06/02 12:27:00;;;;;;;2.63;1.20;;;19.60;92.20;;;;;;4950395;28;20031;-36
2022/06/02 12:30:00;;;;;;;1.20;0.90;;;19.70;91.40;;;;;;4948094;29;20486;-35
2022/06/02 12:32:55;;;;;;;0.75;0.70;;;19.80;91.20;;;;;;4949975;28;20047;-35
2022/06/02 12:35:40;;;;;;;1.10;0.80;;;19.90;91.30;;;;;;4936400;29;20469;-35
2022/06/02 12:38:35;;;;;;;1.02;0.70;;;20.10;91.10;;;;;;4949916;28;20027;-34
2022/06/02 12:41:13;;;;;;;0.77;0.63;;;20.30;90.90;;;;;;4949851;29;20518;-35
2022/06/02 12:43:50;;;;;;;1.25;0.80;;;20.40;90.70;;;;;;4949594;29;20039;-36
2022/06/02 12:46:32;;;;;;;1.00;0.90;;;20.50;90.20;;;;;;4950215;29;20062;-36
2022/06/02 12:49:10;;;;;;;0.80;0.80;;;20.70;89.20;;;;;;4949237;28;20031;-35
2022/06/02 12:51:43;;;;;;;3.05;1.20;;;20.80;88.90;;;;;;4949794;28;20057;-35
2022/06/02 12:54:57;;;;;;;1.55;0.60;;;20.90;88.30;;;;;;4949873;29;20023;-35
2022/06/02 12:58:00;;;;;;;1.20;0.70;;;21.00;88.30;;;;;;4930363;29;20055;-34
2022/06/02 13:00:50;;;;;;;1.27;0.70;;;21.10;88.60;;;;;;4949321;29;20035;-36
2022/06/02 13:03:53;;;;;;;1.50;0.88;;;21.20;87.50;;;;;;4949345;28;20074;-35
2022/06/02 13:06:46;;;;;;;0.70;0.70;;;21.30;85.00;;;;;;4939475;28;20027;-36
2022/06/02 13:09:33;;;;;;;0.98;0.80;;;21.40;85.70;;;;;;4949692;29;20124;-35
2022/06/02 13:12:20;;;;;;;0.70;0.70;;;21.50;85.00;;;;;;4948775;29;20452;-34
2022/06/02 13:15:27;;;;;;;0.60;0.60;;;21.50;84.70;;;;;;4949138;29;20027;-35
2022/06/02 13:18:06;;;;;;;0.60;0.60;;;21.60;84.90;;;;;;4929647;29;20044;-34
2022/06/02 13:21:20;;;;;;;1.00;0.90;;;21.50;84.80;;;;;;4945216;29;20035;-35
2022/06/02 13:23:57;;;;;;;0.73;0.73;;;21.40;84.00;;;;;;4928054;29;20035;-34
2022/06/02 13:26:48;;;;;;;1.35;0.80;;;21.30;84.60;;;;;;4948146;29;20039;-34
2022/06/02 13:29:45;;;;;;;0.80;0.80;;;21.10;84.70;;;;;;4949223;28;20023;-35
2022/06/02 13:32:13;;;;;;;0.80;0.80;;;21.00;84.80;;;;;;4939107;29;20035;-35
2022/06/02 13:34:53;;;;;;;0.73;0.55;;;20.90;85.20;;;;;;4948978;28;20099;-35
2022/06/02 13:37:49;;;;;;;0.57;0.52;;;20.80;85.10;;;;;;4939575;29;20035;-35
2022/06/02 13:40:45;;;;;;;0.60;0.60;;;20.90;85.20;;;;;;4948556;28;20031;-35
2022/06/02 13:43:30;;;;;;;0.85;0.70;;;20.90;85.10;;;;;;4948813;29;20653;-36
2022/06/02 13:46:23;;;;;;;0.70;0.70;;;21.00;85.60;;;;;;4948576;28;20460;-35
2022/06/02 13:49:10;;;;;;;1.45;0.77;;;21.10;84.70;;;;;;4949346;29;20037;-36
2022/06/02 13:52:07;;;;;;;1.00;0.70;;;21.20;84.20;;;;;;4948156;29;20098;-36
2022/06/02 13:57:49;;;;;;;0.70;0.60;;;21.30;84.20;;;;;;4938734;29;20130;-35
2022/06/02 14:00:21;;;;;;;0.80;0.80;;;21.50;84.20;;;;;;4948254;28;20376;-35
2022/06/02 14:03:14;;;;;;;1.00;0.80;;;21.60;83.40;;;;;;4948627;28;20047;-35
2022/06/02 14:06:13;;;;;;;1.27;1.10;;;21.70;82.80;;;;;;4947794;29;20023;-35
2022/06/02 14:09:09;;;;;;;1.52;1.02;;;21.70;82.20;;;;;;4947627;29;20058;-34
2022/06/02 14:11:43;;;;;;;1.45;1.10;;;21.60;82.10;;;;;;4948167;29;20133;-34
2022/06/02 14:14:34;;;;;;;1.05;1.05;;;21.60;81.70;;;;;;4947809;29;20387;-36
2022/06/02 14:17:14;;;;;;;0.82;0.82;;;21.50;81.60;;;;;;4948375;28;20041;-35
2022/06/02 14:19:58;;;;;;;1.10;1.00;;;21.40;81.30;;;;;;4947566;29;20542;-35
2022/06/02 14:22:49;;;;;;;1.13;1.00;;;21.30;81.60;;;;;;4947296;29;20027;-35
2022/06/02 14:25:27;;;;;;;1.48;1.30;;;21.30;81.30;;;;;;4929530;29;20059;-36
2022/06/02 14:28:17;;;;;;;1.25;0.90;;;21.20;80.90;;;;;;4944625;28;20046;-35
2022/06/02 14:30:53;;;;;;;1.08;0.80;;;21.20;80.90;;;;;;4948040;28;20031;-35
2022/06/02 14:33:35;;;;;;;0.80;0.80;;;21.20;81.10;;;;;;4948347;29;20066;-34
2022/06/02 14:36:13;;;;;;;0.98;0.80;;;21.20;81.20;;;;;;4948014;28;20066;-35
2022/06/02 14:38:50;;;;;;;0.80;0.80;;;21.30;81.20;;;;;;4947665;28;20463;-36
2022/06/02 14:41:43;;;;;;;0.90;0.77;;;21.40;80.90;;;;;;4947759;29;20070;-35